createdAt,value
2023-03-03T00:00:34.486Z,987.04
2023-03-03T00:01:34.484Z,987.00
2023-03-03T00:02:34.538Z,987.00
2023-03-03T00:03:34.521Z,986.96
2023-03-03T00:04:34.474Z,986.97
2023-03-03T00:05:34.441Z,986.99
2023-03-03T00:06:34.428Z,986.98
2023-03-03T00:07:34.427Z,986.98
2023-03-03T00:08:34.412Z,987.00
2023-03-03T00:09:34.424Z,986.95
2023-03-03T00:10:34.404Z,986.98
2023-03-03T00:11:34.397Z,987.01
2023-03-03T00:12:34.380Z,987.01
2023-03-03T00:13:34.376Z,986.97
2023-03-03T00:14:34.377Z,987.03
2023-03-03T00:15:34.349Z,986.98
2023-03-03T00:16:34.346Z,986.99
2023-03-03T00:17:34.340Z,986.99
2023-03-03T00:18:34.322Z,987.00
2023-03-03T00:19:34.331Z,987.09
2023-03-03T00:20:34.314Z,987.09
2023-03-03T00:21:34.296Z,987.10
2023-03-03T00:22:34.289Z,987.07
2023-03-03T00:23:34.283Z,987.09
2023-03-03T00:24:34.302Z,987.11
2023-03-03T00:25:34.263Z,987.11
2023-03-03T00:26:34.265Z,987.11
2023-03-03T00:27:34.249Z,987.11
2023-03-03T00:28:34.240Z,987.09
2023-03-03T00:29:34.244Z,987.14
2023-03-03T00:30:34.223Z,987.18
2023-03-03T00:31:34.294Z,987.17
2023-03-03T00:32:34.202Z,987.09
2023-03-03T00:33:34.205Z,987.15
2023-03-03T00:34:34.199Z,987.22
2023-03-03T00:35:34.213Z,987.18
2023-03-03T00:36:34.173Z,987.14
2023-03-03T00:37:34.170Z,987.17
2023-03-03T00:38:34.152Z,987.19
2023-03-03T00:39:34.169Z,987.21
2023-03-03T00:40:34.136Z,987.23
2023-03-03T00:41:34.130Z,987.22
2023-03-03T00:42:34.120Z,987.20
2023-03-03T00:43:34.113Z,987.21
2023-03-03T00:44:34.115Z,987.24
2023-03-03T00:45:34.101Z,987.19
2023-03-03T00:46:34.129Z,987.18
2023-03-03T00:47:34.080Z,987.17
2023-03-03T00:48:34.069Z,987.20
2023-03-03T00:49:34.070Z,987.14
2023-03-03T00:50:34.057Z,987.17
2023-03-03T00:51:34.049Z,987.17
2023-03-03T00:52:34.035Z,987.16
2023-03-03T00:53:34.056Z,987.15
2023-03-03T00:54:34.048Z,987.15
2023-03-03T00:55:34.024Z,987.09
2023-03-03T00:56:34.006Z,987.15
2023-03-03T00:57:33.999Z,987.11
2023-03-03T00:58:33.988Z,987.15
2023-03-03T00:59:33.988Z,987.14
2023-03-03T01:00:34.370Z,987.14
2023-03-03T01:01:34.990Z,987.09
2023-03-03T01:02:33.969Z,987.11
2023-03-03T01:03:33.943Z,987.08
2023-03-03T01:04:33.949Z,987.05
2023-03-03T01:05:33.933Z,987.11
2023-03-03T01:06:33.917Z,987.06
2023-03-03T01:07:33.909Z,987.08
2023-03-03T01:08:33.920Z,987.11
2023-03-03T01:09:33.935Z,987.08
2023-03-03T01:10:33.891Z,987.05
2023-03-03T01:11:33.879Z,987.02
2023-03-03T01:12:33.875Z,987.02
2023-03-03T01:13:34.594Z,987.03
2023-03-03T01:14:34.865Z,987.02
2023-03-03T01:15:33.847Z,987.11
2023-03-03T01:16:33.844Z,987.09
2023-03-03T01:17:33.825Z,987.07
2023-03-03T01:18:33.827Z,987.09
2023-03-03T01:19:33.826Z,987.01
2023-03-03T01:20:33.808Z,987.02
2023-03-03T01:21:33.791Z,987.10
2023-03-03T01:22:33.788Z,987.04
2023-03-03T01:23:33.774Z,987.05
2023-03-03T01:24:33.773Z,987.00
2023-03-03T01:25:33.766Z,987.05
2023-03-03T01:26:33.738Z,987.15
2023-03-03T01:27:34.738Z,987.08
2023-03-03T01:28:33.732Z,987.04
2023-03-03T01:29:33.740Z,987.09
2023-03-03T01:30:33.714Z,987.04
2023-03-03T01:31:33.756Z,987.02
2023-03-03T01:32:33.732Z,986.99
2023-03-03T01:33:33.695Z,986.94
2023-03-03T01:34:33.686Z,986.97
2023-03-03T01:35:33.673Z,986.93
2023-03-03T01:36:33.657Z,986.93
2023-03-03T01:37:33.680Z,986.98
2023-03-03T01:38:33.638Z,987.01
2023-03-03T01:39:33.646Z,986.95
2023-03-03T01:40:33.625Z,986.99
2023-03-03T01:41:33.706Z,986.99
2023-03-03T01:42:33.611Z,987.10
2023-03-03T01:43:33.612Z,987.00
2023-03-03T01:44:33.603Z,987.08
2023-03-03T01:45:33.584Z,987.06
2023-03-03T01:46:33.591Z,987.10
2023-03-03T01:47:33.565Z,987.07
2023-03-03T01:48:33.580Z,987.07
2023-03-03T01:49:33.570Z,987.07
2023-03-03T01:50:33.543Z,987.02
2023-03-03T01:51:33.579Z,987.10
2023-03-03T01:52:33.537Z,987.11
2023-03-03T01:53:33.532Z,987.11
2023-03-03T01:54:33.514Z,987.15
2023-03-03T01:55:34.506Z,987.16
2023-03-03T01:56:33.493Z,987.06
2023-03-03T01:57:33.490Z,987.18
2023-03-03T01:58:33.478Z,987.16
2023-03-03T01:59:33.486Z,987.10
2023-03-03T02:00:33.462Z,987.15
2023-03-03T02:01:33.478Z,987.08
2023-03-03T02:02:33.500Z,987.09
2023-03-03T02:03:33.437Z,987.04
2023-03-03T02:04:33.449Z,986.97
2023-03-03T02:05:33.420Z,986.97
2023-03-03T02:06:33.418Z,986.96
2023-03-03T02:07:33.387Z,986.98
2023-03-03T02:08:33.394Z,986.99
2023-03-03T02:09:33.405Z,986.98
2023-03-03T02:10:33.374Z,987.05
2023-03-03T02:11:33.366Z,987.05
2023-03-03T02:12:33.355Z,987.02
2023-03-03T02:13:33.347Z,986.97
2023-03-03T02:14:33.344Z,986.96
2023-03-03T02:15:33.346Z,986.99
2023-03-03T02:16:33.351Z,986.98
2023-03-03T02:17:33.316Z,986.97
2023-03-03T02:18:33.313Z,986.97
2023-03-03T02:19:33.290Z,986.98
2023-03-03T02:20:34.297Z,986.95
2023-03-03T02:21:33.275Z,986.94
2023-03-03T02:22:33.269Z,986.96
2023-03-03T02:23:33.274Z,987.00
2023-03-03T02:24:33.278Z,986.95
2023-03-03T02:25:33.262Z,986.96
2023-03-03T02:26:33.238Z,986.92
2023-03-03T02:27:33.245Z,986.93
2023-03-03T02:28:33.236Z,986.95
2023-03-03T02:29:33.216Z,986.95
2023-03-03T02:30:33.214Z,986.95
2023-03-03T02:31:33.254Z,987.08
2023-03-03T02:32:33.208Z,987.02
2023-03-03T02:33:33.188Z,987.09
2023-03-03T02:34:33.174Z,987.04
2023-03-03T02:35:33.238Z,986.99
2023-03-03T02:36:33.160Z,987.00
2023-03-03T02:37:33.153Z,986.94
2023-03-03T02:38:33.143Z,986.91
2023-03-03T02:39:33.133Z,986.97
2023-03-03T02:40:33.136Z,986.94
2023-03-03T02:41:33.114Z,986.90
2023-03-03T02:42:33.108Z,987.00
2023-03-03T02:43:33.095Z,987.05
2023-03-03T02:44:33.098Z,987.06
2023-03-03T02:45:33.156Z,987.05
2023-03-03T02:46:33.074Z,987.00
2023-03-03T02:47:33.071Z,987.12
2023-03-03T02:48:33.050Z,987.07
2023-03-03T02:49:33.041Z,987.08
2023-03-03T02:50:33.073Z,987.04
2023-03-03T02:51:33.037Z,987.09
2023-03-03T02:52:33.011Z,987.01
2023-03-03T02:53:33.001Z,987.06
2023-03-03T02:54:32.996Z,987.05
2023-03-03T02:55:32.993Z,986.99
2023-03-03T02:56:32.984Z,986.96
2023-03-03T02:57:32.969Z,987.06
2023-03-03T02:58:32.968Z,987.03
2023-03-03T02:59:32.947Z,987.11
2023-03-03T03:00:32.953Z,987.08
2023-03-03T03:01:32.935Z,987.07
2023-03-03T03:02:32.926Z,987.06
2023-03-03T03:03:32.919Z,986.96
2023-03-03T03:04:32.925Z,986.93
2023-03-03T03:05:32.909Z,986.97
2023-03-03T03:06:32.894Z,986.97
2023-03-03T03:07:32.885Z,987.03
2023-03-03T03:08:32.882Z,987.04
2023-03-03T03:09:32.891Z,986.96
2023-03-03T03:10:32.883Z,986.98
2023-03-03T03:11:32.856Z,986.98
2023-03-03T03:12:32.870Z,986.99
2023-03-03T03:13:32.836Z,986.97
2023-03-03T03:14:32.829Z,986.98
2023-03-03T03:15:32.830Z,987.03
2023-03-03T03:16:32.878Z,987.09
2023-03-03T03:17:32.799Z,987.09
2023-03-03T03:18:32.798Z,987.08
2023-03-03T03:19:32.792Z,987.10
2023-03-03T03:20:32.787Z,987.10
2023-03-03T03:21:32.771Z,987.10
2023-03-03T03:22:32.764Z,987.11
2023-03-03T03:23:32.746Z,987.13
2023-03-03T03:24:32.747Z,987.20
2023-03-03T03:25:32.743Z,987.22
2023-03-03T03:26:32.725Z,987.28
2023-03-03T03:27:32.718Z,987.23
2023-03-03T03:28:32.708Z,987.23
2023-03-03T03:29:32.692Z,987.24
2023-03-03T03:30:32.709Z,987.24
2023-03-03T03:31:32.696Z,987.25
2023-03-03T03:32:32.698Z,987.22
2023-03-03T03:33:32.667Z,987.22
2023-03-03T03:34:32.661Z,987.20
2023-03-03T03:35:32.670Z,987.19
2023-03-03T03:36:32.646Z,987.20
2023-03-03T03:37:32.631Z,987.24
2023-03-03T03:38:32.629Z,987.19
2023-03-03T03:39:32.640Z,987.19
2023-03-03T03:40:32.622Z,987.23
2023-03-03T03:41:32.598Z,987.20
2023-03-03T03:42:32.587Z,987.29
2023-03-03T03:43:32.579Z,987.34
2023-03-03T03:44:32.576Z,987.32
2023-03-03T03:45:32.577Z,987.28
2023-03-03T03:46:32.555Z,987.26
2023-03-03T03:47:32.550Z,987.27
2023-03-03T03:48:32.548Z,987.24
2023-03-03T03:49:32.536Z,987.18
2023-03-03T03:50:32.533Z,987.22
2023-03-03T03:51:32.511Z,987.21
2023-03-03T03:52:32.512Z,987.20
2023-03-03T03:53:32.491Z,987.16
2023-03-03T03:54:32.487Z,987.18
2023-03-03T03:55:32.493Z,987.16
2023-03-03T03:56:32.475Z,987.10
2023-03-03T03:57:32.461Z,987.11
2023-03-03T03:58:32.455Z,987.13
2023-03-03T03:59:32.446Z,987.17
2023-03-03T04:00:32.460Z,987.17
2023-03-03T04:01:32.435Z,987.19
2023-03-03T04:02:32.492Z,987.22
2023-03-03T04:03:32.448Z,987.26
2023-03-03T04:04:32.404Z,987.32
2023-03-03T04:05:32.413Z,987.34
2023-03-03T04:06:32.395Z,987.37
2023-03-03T04:07:32.384Z,987.31
2023-03-03T04:08:32.374Z,987.31
2023-03-03T04:09:32.378Z,987.32
2023-03-03T04:10:58.269Z,987.26
2023-03-03T04:11:32.353Z,987.28
2023-03-03T04:12:32.335Z,987.23
2023-03-03T04:13:32.335Z,987.23
2023-03-03T04:14:32.323Z,987.33
2023-03-03T04:15:32.367Z,987.32
2023-03-03T04:16:32.318Z,987.32
2023-03-03T04:17:32.294Z,987.32
2023-03-03T04:18:32.292Z,987.29
2023-03-03T04:19:32.281Z,987.28
2023-03-03T04:20:32.289Z,987.34
2023-03-03T04:21:32.266Z,987.35
2023-03-03T04:22:32.249Z,987.38
2023-03-03T04:23:32.253Z,987.41
2023-03-03T04:24:32.233Z,987.29
2023-03-03T04:25:32.231Z,987.39
2023-03-03T04:26:32.220Z,987.35
2023-03-03T04:27:32.206Z,987.39
2023-03-03T04:28:32.201Z,987.36
2023-03-03T04:29:32.197Z,987.35
2023-03-03T04:30:32.187Z,987.34
2023-03-03T04:31:32.168Z,987.31
2023-03-03T04:32:32.161Z,987.36
2023-03-03T04:33:32.153Z,987.26
2023-03-03T04:34:32.144Z,987.33
2023-03-03T04:35:32.169Z,987.37
2023-03-03T04:36:32.128Z,987.36
2023-03-03T04:37:32.119Z,987.40
2023-03-03T04:38:32.108Z,987.37
2023-03-03T04:39:32.102Z,987.32
2023-03-03T04:40:32.103Z,987.34
2023-03-03T04:41:32.082Z,987.33
2023-03-03T04:42:32.075Z,987.36
2023-03-03T04:43:32.069Z,987.29
2023-03-03T04:44:32.068Z,987.31
2023-03-03T04:45:32.063Z,987.31
2023-03-03T04:46:32.065Z,987.41
2023-03-03T04:47:32.028Z,987.40
2023-03-03T04:48:32.023Z,987.35
2023-03-03T04:49:32.016Z,987.41
2023-03-03T04:50:32.018Z,987.35
2023-03-03T04:51:32.002Z,987.35
2023-03-03T04:52:31.987Z,987.30
2023-03-03T04:53:31.983Z,987.35
2023-03-03T04:54:31.971Z,987.40
2023-03-03T04:55:32.040Z,987.39
2023-03-03T04:56:31.970Z,987.37
2023-03-03T04:57:31.946Z,987.35
2023-03-03T04:58:31.931Z,987.34
2023-03-03T04:59:31.944Z,987.37
2023-03-03T05:00:31.942Z,987.34
2023-03-03T05:01:31.971Z,987.32
2023-03-03T05:02:31.914Z,987.38
2023-03-03T05:03:31.893Z,987.37
2023-03-03T05:04:31.927Z,987.40
2023-03-03T05:05:31.900Z,987.40
2023-03-03T05:06:31.865Z,987.39
2023-03-03T05:07:31.840Z,987.38
2023-03-03T05:08:31.845Z,987.34
2023-03-03T05:09:31.832Z,987.30
2023-03-03T05:10:33.189Z,987.29
2023-03-03T05:11:31.821Z,987.25
2023-03-03T05:12:31.804Z,987.25
2023-03-03T05:13:31.791Z,987.26
2023-03-03T05:14:31.783Z,987.27
2023-03-03T05:15:31.768Z,987.30
2023-03-03T05:16:31.827Z,987.30
2023-03-03T05:17:31.761Z,987.29
2023-03-03T05:18:31.748Z,987.29
2023-03-03T05:19:31.742Z,987.30
2023-03-03T05:20:31.735Z,987.37
2023-03-03T05:21:31.731Z,987.41
2023-03-03T05:22:31.710Z,987.41
2023-03-03T05:23:31.697Z,987.46
2023-03-03T05:24:31.687Z,987.43
2023-03-03T05:25:31.678Z,987.51
2023-03-03T05:26:31.704Z,987.55
2023-03-03T05:27:31.663Z,987.52
2023-03-03T05:28:31.648Z,987.51
2023-03-03T05:29:31.634Z,987.55
2023-03-03T05:30:31.635Z,987.50
2023-03-03T05:31:31.693Z,987.48
2023-03-03T05:32:31.673Z,987.52
2023-03-03T05:33:31.603Z,987.52
2023-03-03T05:34:31.591Z,987.46
2023-03-03T05:35:31.601Z,987.48
2023-03-03T05:36:31.588Z,987.54
2023-03-03T05:37:31.563Z,987.50
2023-03-03T05:38:31.559Z,987.54
2023-03-03T05:39:31.552Z,987.54
2023-03-03T05:40:31.524Z,987.53
2023-03-03T05:41:32.537Z,987.54
2023-03-03T05:42:31.554Z,987.59
2023-03-03T05:43:31.509Z,987.55
2023-03-03T05:44:31.505Z,987.59
2023-03-03T05:45:31.513Z,987.61
2023-03-03T05:46:31.578Z,987.63
2023-03-03T05:47:31.477Z,987.64
2023-03-03T05:48:31.472Z,987.72
2023-03-03T05:49:31.462Z,987.61
2023-03-03T05:50:31.453Z,987.70
2023-03-03T05:51:31.460Z,987.74
2023-03-03T05:52:31.436Z,987.73
2023-03-03T05:53:31.431Z,987.72
2023-03-03T05:54:31.421Z,987.76
2023-03-03T05:55:31.416Z,987.68
2023-03-03T05:56:31.418Z,987.75
2023-03-03T05:57:31.407Z,987.70
2023-03-03T05:58:31.395Z,987.66
2023-03-03T05:59:31.379Z,987.61
2023-03-03T06:00:31.375Z,987.63
2023-03-03T06:01:31.414Z,987.64
2023-03-03T06:02:31.358Z,987.58
2023-03-03T06:03:31.345Z,987.59
2023-03-03T06:04:31.345Z,987.61
2023-03-03T06:05:31.331Z,987.67
2023-03-03T06:06:31.449Z,987.68
2023-03-03T06:07:31.316Z,987.68
2023-03-03T06:08:31.343Z,987.68
2023-03-03T06:09:31.288Z,987.63
2023-03-03T06:10:31.286Z,987.65
2023-03-03T06:11:31.301Z,987.68
2023-03-03T06:12:31.275Z,987.73
2023-03-03T06:13:31.290Z,987.73
2023-03-03T06:14:31.266Z,987.71
2023-03-03T06:15:31.252Z,987.78
2023-03-03T06:16:31.281Z,987.74
2023-03-03T06:17:31.222Z,987.72
2023-03-03T06:18:31.216Z,987.75
2023-03-03T06:19:31.203Z,987.75
2023-03-03T06:20:31.197Z,987.78
2023-03-03T06:21:31.200Z,987.78
2023-03-03T06:22:31.209Z,987.83
2023-03-03T06:23:31.172Z,987.82
2023-03-03T06:24:31.165Z,987.82
2023-03-03T06:25:31.155Z,987.84
2023-03-03T06:26:31.173Z,987.85
2023-03-03T06:27:31.131Z,987.89
2023-03-03T06:28:31.124Z,987.87
2023-03-03T06:29:31.120Z,987.97
2023-03-03T06:30:31.147Z,987.96
2023-03-03T06:31:31.156Z,987.98
2023-03-03T06:32:31.240Z,988.00
2023-03-03T06:33:31.081Z,987.99
2023-03-03T06:34:31.071Z,988.03
2023-03-03T06:35:31.115Z,988.07
2023-03-03T06:36:31.095Z,988.08
2023-03-03T06:37:31.056Z,988.02
2023-03-03T06:38:31.050Z,988.09
2023-03-03T06:39:31.029Z,988.07
2023-03-03T06:40:31.043Z,988.06
2023-03-03T06:41:31.034Z,988.03
2023-03-03T06:42:31.005Z,988.09
2023-03-03T06:43:31.005Z,988.05
2023-03-03T06:44:31.001Z,987.98
2023-03-03T06:45:31.025Z,988.06
2023-03-03T06:46:30.971Z,988.03
2023-03-03T06:47:30.970Z,988.03
2023-03-03T06:48:30.968Z,988.07
2023-03-03T06:49:30.939Z,988.05
2023-03-03T06:50:30.929Z,988.09
2023-03-03T06:51:30.921Z,988.07
2023-03-03T06:52:30.946Z,988.08
2023-03-03T06:53:30.907Z,988.10
2023-03-03T06:54:31.214Z,988.12
2023-03-03T06:55:31.893Z,988.07
2023-03-03T06:56:30.876Z,988.07
2023-03-03T06:57:30.913Z,988.12
2023-03-03T06:58:30.865Z,988.10
2023-03-03T06:59:30.857Z,988.13
2023-03-03T07:00:31.300Z,988.12
2023-03-03T07:01:31.837Z,988.10
2023-03-03T07:02:30.842Z,988.10
2023-03-03T07:03:30.823Z,988.11
2023-03-03T07:04:31.027Z,988.17
2023-03-03T07:05:30.815Z,988.16
2023-03-03T07:06:30.803Z,988.16
2023-03-03T07:07:30.807Z,988.16
2023-03-03T07:08:30.801Z,988.20
2023-03-03T07:09:30.786Z,988.20
2023-03-03T07:10:31.796Z,988.22
2023-03-03T07:11:30.763Z,988.28
2023-03-03T07:12:30.766Z,988.29
2023-03-03T07:13:30.774Z,988.25
2023-03-03T07:14:30.740Z,988.22
2023-03-03T07:15:30.736Z,988.16
2023-03-03T07:16:30.771Z,988.19
2023-03-03T07:17:30.741Z,988.16
2023-03-03T07:18:30.704Z,988.25
2023-03-03T07:19:30.698Z,988.31
2023-03-03T07:20:30.690Z,988.27
2023-03-03T07:21:30.685Z,988.29
2023-03-03T07:22:30.685Z,988.26
2023-03-03T07:23:30.664Z,988.35
2023-03-03T07:24:30.652Z,988.31
2023-03-03T07:25:30.660Z,988.30
2023-03-03T07:26:30.660Z,988.34
2023-03-03T07:27:30.651Z,988.29
2023-03-03T07:28:30.624Z,988.29
2023-03-03T07:29:30.667Z,988.21
2023-03-03T07:30:30.803Z,988.32
2023-03-03T07:31:30.601Z,988.26
2023-03-03T07:32:30.671Z,988.36
2023-03-03T07:33:30.583Z,988.31
2023-03-03T07:34:30.572Z,988.33
2023-03-03T07:35:30.599Z,988.34
2023-03-03T07:36:30.552Z,988.36
2023-03-03T07:37:30.556Z,988.31
2023-03-03T07:38:30.546Z,988.36
2023-03-03T07:39:30.544Z,988.33
2023-03-03T07:40:30.523Z,988.42
2023-03-03T07:41:30.506Z,988.45
2023-03-03T07:42:30.515Z,988.49
2023-03-03T07:43:30.503Z,988.44
2023-03-03T07:44:30.481Z,988.44
2023-03-03T07:45:30.477Z,988.41
2023-03-03T07:46:30.535Z,988.51
2023-03-03T07:47:30.469Z,988.52
2023-03-03T07:48:30.446Z,988.51
2023-03-03T07:49:30.444Z,988.59
2023-03-03T07:50:30.425Z,988.59
2023-03-03T07:51:30.415Z,988.54
2023-03-03T07:52:30.451Z,988.53
2023-03-03T07:53:30.404Z,988.49
2023-03-03T07:54:30.387Z,988.57
2023-03-03T07:55:30.387Z,988.58
2023-03-03T07:56:30.376Z,988.56
2023-03-03T07:57:30.371Z,988.52
2023-03-03T07:58:30.355Z,988.53
2023-03-03T07:59:30.345Z,988.54
2023-03-03T08:00:30.388Z,988.58
2023-03-03T08:01:30.336Z,988.59
2023-03-03T08:02:30.325Z,988.59
2023-03-03T08:03:30.303Z,988.59
2023-03-03T08:04:30.463Z,988.58
2023-03-03T08:05:30.375Z,988.63
2023-03-03T08:06:30.280Z,988.58
2023-03-03T08:07:30.297Z,988.68
2023-03-03T08:08:30.271Z,988.66
2023-03-03T08:09:30.253Z,988.68
2023-03-03T08:10:30.272Z,988.65
2023-03-03T08:11:30.234Z,988.67
2023-03-03T08:12:30.260Z,988.75
2023-03-03T08:13:30.218Z,988.73
2023-03-03T08:14:30.224Z,988.72
2023-03-03T08:15:30.326Z,988.72
2023-03-03T08:16:30.180Z,988.78
2023-03-03T08:17:30.172Z,988.73
2023-03-03T08:18:30.168Z,988.73
2023-03-03T08:19:30.152Z,988.73
2023-03-03T08:20:30.182Z,988.77
2023-03-03T08:21:30.141Z,988.73
2023-03-03T08:22:30.126Z,988.76
2023-03-03T08:23:30.135Z,988.76
2023-03-03T08:24:30.109Z,988.78
2023-03-03T08:25:30.088Z,988.79
2023-03-03T08:26:30.088Z,988.77
2023-03-03T08:27:30.095Z,988.88
2023-03-03T08:28:30.087Z,988.79
2023-03-03T08:29:30.058Z,988.84
2023-03-03T08:30:30.045Z,988.76
2023-03-03T08:31:40.820Z,988.78
2023-03-03T08:32:32.143Z,988.76
2023-03-03T08:33:30.035Z,988.78
2023-03-03T08:34:30.020Z,988.77
2023-03-03T08:35:30.025Z,988.86
2023-03-03T08:36:29.991Z,988.90
2023-03-03T08:37:29.976Z,988.90
2023-03-03T08:38:29.980Z,988.96
2023-03-03T08:39:29.967Z,988.90
2023-03-03T08:40:29.948Z,988.94
2023-03-03T08:41:29.950Z,988.92
2023-03-03T08:42:29.931Z,988.91
2023-03-03T08:43:29.943Z,988.91
2023-03-03T08:44:29.912Z,988.95
2023-03-03T08:45:29.915Z,988.91
2023-03-03T08:46:29.921Z,988.91
2023-03-03T08:47:29.888Z,988.96
2023-03-03T08:48:29.909Z,988.94
2023-03-03T08:49:29.910Z,988.89
2023-03-03T08:50:29.891Z,988.91
2023-03-03T08:51:29.857Z,988.87
2023-03-03T08:52:29.843Z,988.82
2023-03-03T08:53:29.868Z,988.92
2023-03-03T08:54:29.834Z,988.89
2023-03-03T08:55:29.820Z,988.91
2023-03-03T08:56:29.820Z,988.82
2023-03-03T08:57:29.803Z,988.85
2023-03-03T08:58:35.091Z,988.84
2023-03-03T08:59:31.834Z,988.84
2023-03-03T09:00:29.784Z,988.86
2023-03-03T09:01:29.814Z,988.86
2023-03-03T09:02:29.760Z,988.88
2023-03-03T09:03:29.796Z,988.86
2023-03-03T09:04:29.810Z,988.92
2023-03-03T09:05:29.733Z,988.90
2023-03-03T09:06:29.736Z,988.91
2023-03-03T09:07:29.721Z,988.93
2023-03-03T09:08:29.728Z,988.89
2023-03-03T09:09:29.714Z,988.99
2023-03-03T09:10:29.688Z,988.94
2023-03-03T09:11:29.693Z,988.89
2023-03-03T09:12:29.675Z,988.97
2023-03-03T09:13:29.681Z,988.95
2023-03-03T09:14:29.656Z,988.88
2023-03-03T09:15:29.646Z,988.97
2023-03-03T09:16:29.725Z,988.93
2023-03-03T09:17:29.635Z,989.00
2023-03-03T09:18:29.630Z,988.97
2023-03-03T09:19:29.622Z,988.96
2023-03-03T09:20:29.603Z,988.98
2023-03-03T09:21:29.596Z,988.98
2023-03-03T09:22:29.583Z,988.99
2023-03-03T09:23:29.592Z,989.02
2023-03-03T09:24:29.566Z,988.96
2023-03-03T09:25:29.561Z,989.04
2023-03-03T09:26:29.565Z,989.00
2023-03-03T09:27:29.541Z,988.95
2023-03-03T09:28:29.632Z,989.00
2023-03-03T09:29:29.520Z,988.98
2023-03-03T09:30:29.516Z,989.02
2023-03-03T09:31:29.553Z,988.97
2023-03-03T09:32:29.538Z,988.96
2023-03-03T09:33:29.499Z,988.94
2023-03-03T09:34:29.479Z,989.00
2023-03-03T09:35:29.542Z,988.97
2023-03-03T09:36:29.468Z,988.95
2023-03-03T09:37:29.460Z,988.93
2023-03-03T09:38:29.471Z,988.99
2023-03-03T09:39:29.440Z,988.99
2023-03-03T09:40:29.428Z,989.04
2023-03-03T09:41:29.420Z,989.08
2023-03-03T09:42:29.424Z,989.07
2023-03-03T09:43:29.413Z,989.03
2023-03-03T09:44:29.398Z,989.06
2023-03-03T09:45:29.383Z,989.05
2023-03-03T09:46:29.419Z,989.22
2023-03-03T09:47:29.388Z,989.14
2023-03-03T09:48:29.374Z,989.13
2023-03-03T09:49:29.361Z,989.07
2023-03-03T09:50:29.343Z,989.04
2023-03-03T09:51:29.338Z,989.06
2023-03-03T09:52:29.334Z,989.05
2023-03-03T09:53:29.332Z,989.03
2023-03-03T09:54:29.314Z,989.00
2023-03-03T09:55:29.303Z,988.96
2023-03-03T09:56:29.294Z,989.05
2023-03-03T09:57:29.286Z,989.07
2023-03-03T09:58:29.330Z,989.07
2023-03-03T09:59:29.273Z,989.10
2023-03-03T10:00:29.261Z,989.10
2023-03-03T10:01:29.256Z,989.14
2023-03-03T10:02:29.247Z,989.07
2023-03-03T10:03:29.296Z,989.14
2023-03-03T10:04:29.309Z,989.13
2023-03-03T10:05:29.211Z,989.12
2023-03-03T10:06:29.232Z,989.18
2023-03-03T10:07:29.199Z,989.08
2023-03-03T10:08:31.533Z,989.17
2023-03-03T10:09:30.182Z,989.21
2023-03-03T10:10:29.239Z,989.13
2023-03-03T10:11:29.270Z,989.11
2023-03-03T10:12:29.158Z,989.11
2023-03-03T10:13:29.157Z,989.10
2023-03-03T10:14:29.128Z,989.10
2023-03-03T10:15:30.202Z,989.13
2023-03-03T10:16:29.194Z,989.13
2023-03-03T10:17:29.115Z,989.08
2023-03-03T10:18:29.350Z,989.09
2023-03-03T10:19:29.138Z,989.08
2023-03-03T10:20:34.750Z,989.12
2023-03-03T10:21:30.076Z,989.05
2023-03-03T10:22:29.066Z,989.13
2023-03-03T10:23:29.069Z,989.10
2023-03-03T10:24:29.071Z,989.08
2023-03-03T10:25:29.042Z,989.15
2023-03-03T10:26:42.185Z,989.10
2023-03-03T10:27:31.059Z,989.13
2023-03-03T10:28:29.025Z,989.10
2023-03-03T10:29:31.031Z,989.15
2023-03-03T10:30:39.918Z,989.11
2023-03-03T10:31:31.027Z,989.11
2023-03-03T10:32:30.168Z,989.09
2023-03-03T10:33:29.173Z,989.06
2023-03-03T10:34:29.002Z,989.10
2023-03-03T10:35:28.982Z,989.10
2023-03-03T10:36:30.557Z,989.02
2023-03-03T10:37:29.940Z,989.02
2023-03-03T10:38:28.939Z,989.06
2023-03-03T10:39:28.924Z,989.09
2023-03-03T10:40:28.912Z,989.04
2023-03-03T10:41:28.915Z,989.07
2023-03-03T10:42:28.909Z,989.07
2023-03-03T10:43:32.135Z,989.12
2023-03-03T10:44:29.872Z,989.09
2023-03-03T10:45:28.871Z,989.14
2023-03-03T10:46:28.876Z,989.17
2023-03-03T10:47:28.848Z,989.10
2023-03-03T10:48:28.851Z,989.18
2023-03-03T10:49:28.920Z,989.19
2023-03-03T10:50:28.866Z,989.16
2023-03-03T10:51:28.840Z,989.21
2023-03-03T10:52:28.807Z,989.16
2023-03-03T10:53:28.972Z,989.16
2023-03-03T10:54:29.488Z,989.16
2023-03-03T10:55:28.777Z,989.17
2023-03-03T10:56:28.780Z,989.18
2023-03-03T10:57:28.761Z,989.19
2023-03-03T10:58:28.839Z,989.21
2023-03-03T10:59:28.787Z,989.11
2023-03-03T11:00:28.848Z,989.15
2023-03-03T11:01:28.799Z,989.20
2023-03-03T11:02:28.724Z,989.18
2023-03-03T11:03:28.909Z,989.14
2023-03-03T11:04:28.740Z,989.15
2023-03-03T11:05:28.695Z,989.12
2023-03-03T11:06:28.683Z,989.20
2023-03-03T11:07:28.674Z,989.14
2023-03-03T11:08:28.668Z,989.17
2023-03-03T11:09:28.762Z,989.18
2023-03-03T11:10:28.668Z,989.22
2023-03-03T11:11:28.637Z,989.19
2023-03-03T11:12:28.635Z,989.14
2023-03-03T11:13:28.628Z,989.20
2023-03-03T11:14:28.653Z,989.21
2023-03-03T11:15:28.717Z,989.20
2023-03-03T11:16:28.600Z,989.11
2023-03-03T11:17:28.697Z,989.09
2023-03-03T11:18:28.584Z,989.13
2023-03-03T11:19:28.585Z,989.16
2023-03-03T11:20:28.561Z,989.10
2023-03-03T11:21:28.570Z,989.10
2023-03-03T11:22:28.550Z,989.14
2023-03-03T11:23:28.536Z,989.14
2023-03-03T11:24:28.536Z,989.10
2023-03-03T11:25:28.547Z,989.07
2023-03-03T11:26:28.562Z,989.10
2023-03-03T11:27:28.581Z,989.02
2023-03-03T11:28:28.579Z,989.06
2023-03-03T11:29:28.554Z,989.07
2023-03-03T11:30:28.489Z,989.09
2023-03-03T11:31:31.365Z,989.07
2023-03-03T11:32:29.504Z,989.04
2023-03-03T11:33:28.454Z,989.14
2023-03-03T11:34:28.458Z,989.05
2023-03-03T11:35:28.473Z,989.14
2023-03-03T11:36:28.433Z,989.03
2023-03-03T11:37:28.427Z,989.11
2023-03-03T11:38:28.416Z,989.12
2023-03-03T11:39:28.460Z,989.09
2023-03-03T11:40:28.409Z,989.03
2023-03-03T11:41:28.398Z,989.04
2023-03-03T11:42:28.384Z,989.04
2023-03-03T11:43:36.481Z,989.00
2023-03-03T11:44:30.622Z,989.05
2023-03-03T11:45:28.355Z,988.97
2023-03-03T11:46:28.415Z,989.01
2023-03-03T11:47:31.310Z,988.93
2023-03-03T11:48:28.332Z,988.98
2023-03-03T11:49:28.341Z,988.98
2023-03-03T11:50:28.315Z,988.96
2023-03-03T11:51:28.315Z,988.89
2023-03-03T11:52:28.299Z,988.89
2023-03-03T11:53:28.317Z,988.91
2023-03-03T11:54:28.305Z,988.83
2023-03-03T11:55:28.275Z,988.81
2023-03-03T11:56:28.265Z,988.86
2023-03-03T11:57:28.263Z,988.83
2023-03-03T11:58:28.244Z,988.77
2023-03-03T11:59:28.248Z,988.78
2023-03-03T12:00:28.245Z,988.81
2023-03-03T12:01:28.220Z,988.82
2023-03-03T12:02:28.237Z,988.84
2023-03-03T12:03:28.204Z,988.80
2023-03-03T12:04:28.202Z,988.80
2023-03-03T12:05:28.221Z,988.85
2023-03-03T12:06:28.178Z,988.75
2023-03-03T12:07:28.170Z,988.78
2023-03-03T12:08:28.162Z,988.74
2023-03-03T12:09:28.160Z,988.70
2023-03-03T12:10:28.142Z,988.75
2023-03-03T12:11:28.129Z,988.71
2023-03-03T12:12:28.126Z,988.68
2023-03-03T12:13:28.122Z,988.71
2023-03-03T12:14:28.123Z,988.69
2023-03-03T12:15:28.111Z,988.68
2023-03-03T12:16:28.093Z,988.74
2023-03-03T12:17:28.084Z,988.71
2023-03-03T12:18:28.093Z,988.68
2023-03-03T12:19:28.096Z,988.68
2023-03-03T12:20:28.054Z,988.70
2023-03-03T12:21:29.115Z,988.69
2023-03-03T12:22:28.107Z,988.58
2023-03-03T12:23:28.112Z,988.62
2023-03-03T12:24:28.106Z,988.63
2023-03-03T12:25:28.089Z,988.57
2023-03-03T12:26:28.073Z,988.64
2023-03-03T12:27:28.062Z,988.59
2023-03-03T12:28:28.059Z,988.61